Time;durP1;ratioP1;P1;durP2;ratioP2;P2;SDS_P1;SDS_P2;PMS_P1;PMS_P2;Temp;Humidity;BMP_temperature;BMP_pressure;BME280_temperature;BME280_humidity;BME280_pressure;Samples;Min_cycle;Max_cycle;Signal;HPM_P1;HPM_P2
2022/08/24 00:02:10;;;;;;;;;;;;;;;24.35;51.31;101299.22;5141080;27;19923;-39
2022/08/24 00:04:37;;;;;;;;;;;;;;;24.36;51.29;101309.25;5146642;27;20261;-39
2022/08/24 00:07:03;;;;;;;;;;;;;;;24.35;51.26;101296.44;5135537;27;19931;-39
2022/08/24 00:09:29;;;;;;;;;;;;;;;24.34;51.23;101301.19;5120791;27;19931;-39
2022/08/24 00:11:54;;;;;;;;;;;;;;;24.34;51.27;101295.63;5138009;27;19927;-39
2022/08/24 00:14:20;;;;;;;;;;;;;;;24.35;51.30;101302.00;5139951;27;20004;-39
2022/08/24 00:16:45;;;;;;;;;;;;;;;24.35;51.33;101308.41;5135846;27;20365;-39
2022/08/24 00:19:11;;;;;;;;;;;;;;;24.34;51.41;101298.41;5141741;27;20014;-41
2022/08/24 00:21:37;;;;;;;;;;;;;;;24.35;51.29;101297.25;5145436;27;20172;-39
2022/08/24 00:24:02;;;;;;;;;;;;;;;24.34;51.26;101301.19;5144993;27;19923;-39
2022/08/24 00:26:28;;;;;;;;;;;;;;;24.33;51.35;101298.72;5120052;27;19959;-39
2022/08/24 00:28:54;;;;;;;;;;;;;;;24.34;51.32;101298.41;5143919;27;19927;-39
2022/08/24 00:31:21;;;;;;;;;;;;;;;24.34;51.26;101305.94;5138818;27;19923;-39
2022/08/24 00:33:46;;;;;;;;;;;;;;;24.34;51.31;101306.75;5139086;27;19923;-39
2022/08/24 00:36:12;;;;;;;;;;;;;;;24.34;51.24;101301.19;5139996;27;19989;-39
2022/08/24 00:38:38;;;;;;;;;;;;;;;24.33;51.22;101307.91;5143511;27;19923;-40
2022/08/24 00:41:04;;;;;;;;;;;;;;;24.33;51.40;101307.91;5139832;27;19927;-39
2022/08/24 00:43:29;;;;;;;;;;;;;;;24.33;51.33;101302.31;5139351;27;19923;-39
2022/08/24 00:46:15;;;;;;;;;;;;;;;24.34;51.40;101306.75;5115999;27;20025;-39
2022/08/24 00:48:42;;;;;;;;;;;;;;;24.34;51.33;101312.31;5127480;27;20014;-39
2022/08/24 00:51:15;;;;;;;;;;;;;;;24.34;51.30;101309.53;5121922;27;20361;-41
2022/08/24 00:53:42;;;;;;;;;;;;;;;24.33;51.36;101304.28;5122399;27;20007;-39
2022/08/24 00:56:11;;;;;;;;;;;;;;;24.34;51.26;101305.94;5137374;27;20027;-39
2022/08/24 00:58:41;;;;;;;;;;;;;;;24.33;51.28;101310.69;5141947;27;20424;-39
2022/08/24 01:01:07;;;;;;;;;;;;;;;24.33;51.35;101295.94;5139873;27;20897;-39
2022/08/24 01:03:32;;;;;;;;;;;;;;;24.33;51.31;101307.06;5124934;27;20273;-39
2022/08/24 01:05:58;;;;;;;;;;;;;;;24.32;51.39;101297.09;5138512;27;20375;-39
2022/08/24 01:08:24;;;;;;;;;;;;;;;24.33;51.42;101304.28;5125372;27;19927;-39
2022/08/24 01:10:51;;;;;;;;;;;;;;;24.33;51.38;101307.06;5123788;27;20260;-39
2022/08/24 01:13:17;;;;;;;;;;;;;;;24.33;51.40;101305.13;5137143;27;20047;-46
2022/08/24 01:15:43;;;;;;;;;;;;;;;24.33;51.41;101310.69;5139962;27;20077;-39
2022/08/24 01:21:16;;;;;;;;;;;;;;;24.32;51.36;101308.22;5127412;27;19981;-38
2022/08/24 01:23:44;;;;;;;;;;;;;;;24.33;51.43;101309.84;5124566;27;19980;-39
2022/08/24 01:26:17;;;;;;;;;;;;;;;24.31;51.21;101301.81;5117694;27;21053;-39
2022/08/24 01:28:43;;;;;;;;;;;;;;;24.33;51.31;101309.84;5123592;27;19963;-39
2022/08/24 01:31:10;;;;;;;;;;;;;;;24.32;51.41;101300.69;5140897;27;19930;-39
2022/08/24 01:33:35;;;;;;;;;;;;;;;24.32;51.30;101309.03;5123222;27;19926;-39
2022/08/24 01:36:10;;;;;;;;;;;;;;;24.31;51.37;101306.53;5140456;27;19923;-39
2022/08/24 01:38:35;;;;;;;;;;;;;;;24.32;51.33;101311.81;5142159;27;19958;-40
2022/08/24 01:41:02;;;;;;;;;;;;;;;24.31;51.34;101306.53;5121806;27;19924;-39
2022/08/24 01:43:27;;;;;;;;;;;;;;;24.32;51.35;101308.22;5144675;27;20022;-39
2022/08/24 01:45:55;;;;;;;;;;;;;;;24.32;51.32;101311.81;5140504;27;20039;-39
2022/08/24 01:48:21;;;;;;;;;;;;;;;24.32;51.43;101311.00;5123694;27;19924;-39
2022/08/24 01:50:48;;;;;;;;;;;;;;;24.32;51.42;101308.22;5138493;27;19974;-39
2022/08/24 01:53:14;;;;;;;;;;;;;;;24.31;51.41;101303.75;5137627;27;19942;-39
2022/08/24 01:55:40;;;;;;;;;;;;;;;24.31;51.42;101303.75;5135217;27;19937;-39
2022/08/24 01:58:05;;;;;;;;;;;;;;;24.31;51.37;101303.75;5136775;27;19978;-39
2022/08/24 02:00:31;;;;;;;;;;;;;;;24.31;51.42;101315.75;5117227;28;20349;-38
2022/08/24 02:02:57;;;;;;;;;;;;;;;24.31;51.42;101314.88;5138541;27;19931;-39
2022/08/24 02:05:23;;;;;;;;;;;;;;;24.31;51.38;101320.47;5139052;27;19923;-39
2022/08/24 02:07:49;;;;;;;;;;;;;;;24.31;51.28;101321.31;5136146;27;20015;-39
2022/08/24 02:10:15;;;;;;;;;;;;;;;24.32;51.32;101330.47;5120301;27;19968;-39
2022/08/24 02:12:41;;;;;;;;;;;;;;;24.30;51.33;101327.97;5120029;27;20017;-39
2022/08/24 02:15:07;;;;;;;;;;;;;;;24.29;51.42;101321.59;5121197;27;20409;-39
2022/08/24 02:17:33;;;;;;;;;;;;;;;24.30;51.42;101322.41;5139453;27;20342;-39
2022/08/24 02:19:59;;;;;;;;;;;;;;;24.30;51.40;101325.19;5143928;27;20022;-39
2022/08/24 02:22:24;;;;;;;;;;;;;;;24.31;51.37;101320.47;5141657;27;19952;-39
2022/08/24 02:24:50;;;;;;;;;;;;;;;24.30;51.34;101325.19;5142999;27;19927;-38
2022/08/24 02:27:16;;;;;;;;;;;;;;;24.31;51.40;101331.59;5134668;27;19930;-39
2022/08/24 02:29:41;;;;;;;;;;;;;;;24.30;51.54;101325.19;5138553;27;20285;-39
2022/08/24 02:32:07;;;;;;;;;;;;;;;24.30;51.33;101325.19;5118735;27;19923;-39
2022/08/24 02:34:33;;;;;;;;;;;;;;;24.28;51.44;101328.31;5121130;27;20403;-39
2022/08/24 02:36:58;;;;;;;;;;;;;;;24.30;51.45;101330.78;5139975;27;19923;-39
2022/08/24 02:39:24;;;;;;;;;;;;;;;24.29;51.44;101326.34;5140231;27;19927;-39
2022/08/24 02:41:50;;;;;;;;;;;;;;;24.29;51.37;101320.78;5139748;27;20388;-39
2022/08/24 02:44:16;;;;;;;;;;;;;;;24.29;51.41;101324.38;5140508;27;19974;-39
2022/08/24 02:46:41;;;;;;;;;;;;;;;24.29;51.49;101324.38;5136201;27;19968;-40
2022/08/24 02:49:07;;;;;;;;;;;;;;;24.30;51.43;101327.97;5139818;27;19930;-39
2022/08/24 02:51:37;;;;;;;;;;;;;;;24.29;51.42;101329.13;5137220;27;19923;-39
2022/08/24 02:54:10;;;;;;;;;;;;;;;24.28;51.43;101328.31;5136655;27;19924;-39
2022/08/24 02:56:35;;;;;;;;;;;;;;;24.29;51.40;101329.94;5117124;27;19923;-39
2022/08/24 02:59:01;;;;;;;;;;;;;;;24.28;51.52;101328.31;5139375;27;19928;-39
2022/08/24 03:01:27;;;;;;;;;;;;;;;24.29;51.37;101334.69;5137819;27;19942;-39
2022/08/24 03:03:56;;;;;;;;;;;;;;;24.29;51.45;101329.13;5137857;27;19931;-39
2022/08/24 03:06:22;;;;;;;;;;;;;;;24.29;51.46;101331.91;5119236;27;20418;-43
2022/08/24 03:08:47;;;;;;;;;;;;;;;24.29;51.42;101329.13;5135623;27;19931;-39
2022/08/24 03:11:22;;;;;;;;;;;;;;;24.28;51.48;101331.09;5135261;27;20392;-39
2022/08/24 03:13:54;;;;;;;;;;;;;;;24.28;51.38;101328.31;5139722;27;19923;-40
2022/08/24 03:16:19;;;;;;;;;;;;;;;24.28;51.44;101328.31;5139216;27;20397;-39
2022/08/24 03:18:45;;;;;;;;;;;;;;;24.28;51.40;101331.09;5139902;27;19930;-39
2022/08/24 03:21:10;;;;;;;;;;;;;;;24.28;51.38;101331.09;5137269;27;19931;-39
2022/08/24 03:23:36;;;;;;;;;;;;;;;24.28;51.51;101325.53;5138861;27;19931;-39
2022/08/24 03:26:01;;;;;;;;;;;;;;;24.28;51.48;101325.53;5136197;27;19938;-39
2022/08/24 03:28:27;;;;;;;;;;;;;;;24.28;51.46;101333.88;5140535;27;20251;-40
2022/08/24 03:30:53;;;;;;;;;;;;;;;24.27;51.52;101323.06;5142231;27;20018;-39
2022/08/24 03:33:19;;;;;;;;;;;;;;;24.27;51.43;101326.66;5120406;27;20384;-40
2022/08/24 03:35:45;;;;;;;;;;;;;;;24.28;51.44;101328.31;5141697;27;19931;-39
2022/08/24 03:38:12;;;;;;;;;;;;;;;24.27;51.43;101332.22;5143259;27;20411;-39
2022/08/24 03:40:39;;;;;;;;;;;;;;;24.27;51.46;101332.22;5121774;27;20372;-39
2022/08/24 03:43:05;;;;;;;;;;;;;;;24.27;51.51;101325.84;5142254;27;19980;-39
2022/08/24 03:45:30;;;;;;;;;;;;;;;24.27;51.57;101325.84;5141417;27;19931;-39
2022/08/24 03:47:56;;;;;;;;;;;;;;;24.27;51.52;101329.44;5139871;27;20289;-39
2022/08/24 03:50:22;;;;;;;;;;;;;;;24.27;51.54;101332.22;5143874;27;19923;-39
2022/08/24 03:52:47;;;;;;;;;;;;;;;24.27;51.56;101326.66;5121700;27;20010;-39
2022/08/24 03:55:13;;;;;;;;;;;;;;;24.27;51.44;101329.44;5123569;27;19924;-39
2022/08/24 03:57:39;;;;;;;;;;;;;;;24.26;51.46;101330.53;5122460;27;19931;-39
2022/08/24 04:00:06;;;;;;;;;;;;;;;24.26;51.48;101327.75;5121823;27;19943;-39
2022/08/24 04:02:32;;;;;;;;;;;;;;;24.27;51.52;101328.63;5127454;27;20046;-39
2022/08/24 04:04:58;;;;;;;;;;;;;;;24.27;51.45;101320.28;5143963;27;19923;-39
2022/08/24 04:07:24;;;;;;;;;;;;;;;24.27;51.46;101325.84;5138136;27;19985;-38
2022/08/24 04:09:49;;;;;;;;;;;;;;;24.26;51.53;101324.97;5137804;27;19923;-38
2022/08/24 04:12:15;;;;;;;;;;;;;;;24.27;51.54;101323.06;5145056;27;19927;-38
2022/08/24 04:14:40;;;;;;;;;;;;;;;24.26;51.58;101319.41;5126645;28;19923;-39
2022/08/24 04:17:06;;;;;;;;;;;;;;;24.26;51.47;101319.41;5141886;27;19930;-38
2022/08/24 04:19:32;;;;;;;;;;;;;;;24.27;51.52;101323.06;5141121;27;19941;-39
2022/08/24 04:21:58;;;;;;;;;;;;;;;24.28;51.44;101327.47;5142960;27;20026;-39
2022/08/24 04:24:24;;;;;;;;;;;;;;;24.27;51.46;101328.63;5141712;27;19923;-38
2022/08/24 04:26:49;;;;;;;;;;;;;;;24.27;51.44;101337.78;5138901;27;19927;-39
2022/08/24 04:29:15;;;;;;;;;;;;;;;24.25;51.24;101328.09;5140653;27;20430;-38
2022/08/24 04:31:41;;;;;;;;;;;;;;;24.25;51.37;101333.66;5143530;27;20019;-38
2022/08/24 04:34:07;;;;;;;;;;;;;;;24.26;51.36;101332.50;5141827;27;19923;-39
2022/08/24 04:36:32;;;;;;;;;;;;;;;24.27;51.32;101336.97;5117275;27;19932;-39
2022/08/24 04:38:59;;;;;;;;;;;;;;;24.27;51.32;101332.22;5122359;27;19930;-39
2022/08/24 04:41:25;;;;;;;;;;;;;;;24.28;51.31;101338.63;5119996;27;19981;-39
2022/08/24 04:43:57;;;;;;;;;;;;;;;24.29;51.21;101340.25;5123963;27;19976;-38
2022/08/24 04:46:23;;;;;;;;;;;;;;;24.29;51.04;101340.25;5115522;27;20021;-40
2022/08/24 04:48:48;;;;;;;;;;;;;;;24.30;51.12;101344.69;5139906;27;19964;-39
2022/08/24 04:51:16;;;;;;;;;;;;;;;24.31;51.03;101345.50;5120042;27;19943;-39
2022/08/24 04:53:42;;;;;;;;;;;;;;;24.31;51.03;101342.72;5141391;27;20022;-39
2022/08/24 04:56:09;;;;;;;;;;;;;;;24.31;51.09;101345.50;5121336;27;20429;-39
2022/08/24 04:58:34;;;;;;;;;;;;;;;24.31;51.14;101348.28;5141619;27;19962;-39
2022/08/24 05:01:00;;;;;;;;;;;;;;;24.32;51.18;101341.63;5141989;27;19924;-39
2022/08/24 05:03:25;;;;;;;;;;;;;;;24.32;51.07;101352.75;5139436;27;19934;-39
2022/08/24 05:05:51;;;;;;;;;;;;;;;24.32;51.12;101352.75;5132464;27;19930;-43
2022/08/24 05:08:18;;;;;;;;;;;;;;;24.32;51.15;101356.34;5136474;27;20265;-39
2022/08/24 05:10:45;;;;;;;;;;;;;;;24.32;51.18;101350.78;5116128;27;20018;-39
2022/08/24 05:13:10;;;;;;;;;;;;;;;24.32;51.19;101361.91;5118452;27;20017;-39
2022/08/24 05:15:39;;;;;;;;;;;;;;;24.34;51.15;101361.59;5133232;27;19945;-39
2022/08/24 05:18:06;;;;;;;;;;;;;;;24.33;51.19;101360.78;5113118;27;20283;-41
2022/08/24 05:20:32;;;;;;;;;;;;;;;24.33;51.16;101362.75;5138516;27;19966;-39
2022/08/24 05:22:57;;;;;;;;;;;;;;;24.34;51.17;101364.38;5133658;27;19931;-40
2022/08/24 05:25:29;;;;;;;;;;;;;;;24.35;51.30;101364.06;5127160;27;19931;-43
2022/08/24 05:27:54;;;;;;;;;;;;;;;24.36;51.46;101364.94;5129570;27;19933;-39
2022/08/24 05:30:20;;;;;;;;;;;;;;;24.35;51.40;101363.25;5135893;27;19938;-43
2022/08/24 05:32:46;;;;;;;;;;;;;;;24.34;51.62;101368.00;5138517;27;19931;-41
2022/08/24 05:35:11;;;;;;;;;;;;;;;24.36;51.48;101371.31;5129334;27;19932;-41
2022/08/24 05:37:37;;;;;;;;;;;;;;;24.36;51.61;101376.06;5126527;27;19924;-42
2022/08/24 05:40:04;;;;;;;;;;;;;;;24.36;51.56;101385.22;5111390;27;20286;-39
2022/08/24 05:42:30;;;;;;;;;;;;;;;24.38;51.61;101376.59;5127105;27;19934;-39
2022/08/24 05:44:56;;;;;;;;;;;;;;;24.37;51.75;101392.47;5130436;27;20056;-41
2022/08/24 05:47:21;;;;;;;;;;;;;;;24.37;51.68;101384.13;5121066;27;20363;-39
2022/08/24 05:49:47;;;;;;;;;;;;;;;24.37;51.81;101388.84;5137778;27;19935;-40
2022/08/24 05:52:12;;;;;;;;;;;;;;;24.37;51.85;101389.69;5133984;27;19934;-43
2022/08/24 05:54:39;;;;;;;;;;;;;;;24.39;51.90;101394.94;5134111;27;19923;-42
2022/08/24 05:57:05;;;;;;;;;;;;;;;24.37;51.93;101386.91;5129949;27;19963;-43
2022/08/24 05:59:30;;;;;;;;;;;;;;;24.37;51.66;101395.25;5133497;27;19929;-43
2022/08/24 06:01:57;;;;;;;;;;;;;;;24.38;52.02;101385.78;5122933;27;19924;-44
2022/08/24 06:04:22;;;;;;;;;;;;;;;24.38;51.99;101396.91;5120984;27;19977;-44
2022/08/24 06:06:51;;;;;;;;;;;;;;;24.37;51.95;101389.69;5120809;27;19975;-40
2022/08/24 06:09:16;;;;;;;;;;;;;;;24.37;52.18;101391.63;5120599;27;20037;-42
2022/08/24 06:11:42;;;;;;;;;;;;;;;24.37;52.17;101388.84;5131555;27;19924;-47
2022/08/24 06:14:09;;;;;;;;;;;;;;;24.37;52.08;101391.63;5111022;27;20376;-41
2022/08/24 06:16:38;;;;;;;;;;;;;;;24.36;52.03;101396.38;5136338;27;19984;-41
2022/08/24 06:19:05;;;;;;;;;;;;;;;24.36;51.93;101401.94;5130369;27;19923;-40
2022/08/24 06:21:31;;;;;;;;;;;;;;;24.35;51.71;101399.44;5130267;27;20491;-44
2022/08/24 06:23:57;;;;;;;;;;;;;;;24.35;52.06;101405.81;5122943;27;19932;-42
2022/08/24 06:29:10;;;;;;;;;;;;;;;24.36;51.92;101403.91;5115974;27;19984;-46
2022/08/24 06:31:36;;;;;;;;;;;;;;;24.36;51.95;101409.47;5126716;27;19946;-40
2022/08/24 06:34:07;;;;;;;;;;;;;;;24.35;52.06;101403.03;5124386;27;19934;-42
2022/08/24 06:36:33;;;;;;;;;;;;;;;24.33;53.24;101407.28;5126587;27;19931;-44
2022/08/24 06:38:58;;;;;;;;;;;;;;;24.32;52.81;101402.84;5127852;27;19923;-39
2022/08/24 06:41:25;;;;;;;;;;;;;;;24.35;52.55;101407.78;5128686;27;20285;-40
2022/08/24 06:43:51;;;;;;;;;;;;;;;24.36;52.22;101409.47;5131622;27;20019;-41
2022/08/24 06:46:16;;;;;;;;;;;;;;;24.38;52.42;101418.34;5106375;27;20018;-42
2022/08/24 06:48:50;;;;;;;;;;;;;;;24.39;52.94;101431.97;5124825;27;19973;-42
2022/08/24 06:51:16;;;;;;;;;;;;;;;24.39;52.76;101415.25;5127162;27;20030;-41
2022/08/24 06:53:42;;;;;;;;;;;;;;;24.40;52.90;101418.88;5120576;27;20034;-40
2022/08/24 06:56:08;;;;;;;;;;;;;;;24.40;52.58;101419.72;5095309;27;19923;-43
2022/08/24 06:58:34;;;;;;;;;;;;;;;24.41;52.50;101428.88;5099054;27;19924;-41
2022/08/24 07:01:16;;;;;;;;;;;;;;;24.40;52.63;101419.72;5125327;27;20009;-39
2022/08/24 07:03:42;;;;;;;;;;;;;;;24.41;52.45;101420.53;5099989;27;19941;-40
2022/08/24 07:06:08;;;;;;;;;;;;;;;24.42;52.96;101411.03;5116608;27;20360;-42
2022/08/24 07:08:34;;;;;;;;;;;;;;;24.40;53.85;101433.63;5117159;27;19931;-46
2022/08/24 07:10:59;;;;;;;;;;;;;;;24.43;54.28;101429.41;5114302;27;20069;-43
2022/08/24 07:13:25;;;;;;;;;;;;;;;24.42;53.33;101427.75;5125776;27;19931;-42
2022/08/24 07:15:51;;;;;;;;;;;;;;;24.43;53.64;101429.41;5124207;27;19931;-47
2022/08/24 07:18:17;;;;;;;;;;;;;;;24.43;53.52;101437.75;5123754;27;19923;-44
2022/08/24 07:20:42;;;;;;;;;;;;;;;24.43;53.15;101430.22;5108380;27;19923;-44
2022/08/24 07:23:09;;;;;;;;;;;;;;;24.42;52.88;101434.13;5122576;27;19931;-42
2022/08/24 07:25:34;;;;;;;;;;;;;;;24.42;53.24;101434.13;5106137;27;20198;-41
2022/08/24 07:28:00;;;;;;;;;;;;;;;24.42;52.79;101438.88;5124116;27;20335;-41
2022/08/24 07:30:26;;;;;;;;;;;;;;;24.35;53.26;101432.84;5124395;27;19932;-41
2022/08/24 07:32:54;;;;;;;;;;;;;;;24.39;52.83;101434.75;5105166;27;19923;-43
2022/08/24 07:35:19;;;;;;;;;;;;;;;24.42;52.84;101436.09;5101662;27;20007;-44
2022/08/24 07:37:45;;;;;;;;;;;;;;;24.42;52.58;101434.13;5119690;27;19931;-42
2022/08/24 07:40:11;;;;;;;;;;;;;;;24.43;51.89;101434.97;5102477;27;19923;-41
2022/08/24 07:42:38;;;;;;;;;;;;;;;24.42;51.79;101431.34;5118778;27;19923;-41
2022/08/24 07:45:04;;;;;;;;;;;;;;;24.43;51.47;101435.78;5121972;27;20342;-45
2022/08/24 07:47:30;;;;;;;;;;;;;;;24.44;51.62;101439.44;5121403;27;20033;-41
2022/08/24 07:50:10;;;;;;;;;;;;;;;24.44;51.23;101439.44;5117167;27;19984;-42
2022/08/24 07:52:35;;;;;;;;;;;;;;;24.44;51.42;101443.03;5121612;27;20031;-43
2022/08/24 07:55:01;;;;;;;;;;;;;;;24.45;51.29;101441.91;5120380;27;19923;-44
2022/08/24 07:57:27;;;;;;;;;;;;;;;24.44;51.15;101436.66;5101773;28;20011;-44
2022/08/24 07:59:53;;;;;;;;;;;;;;;24.45;50.69;101436.31;5120680;27;19953;-45
2022/08/24 08:02:18;;;;;;;;;;;;;;;24.46;50.61;101448.28;5118540;27;19943;-44
2022/08/24 08:04:44;;;;;;;;;;;;;;;24.45;50.34;101444.69;5123486;27;19924;-42
2022/08/24 08:07:11;;;;;;;;;;;;;;;24.48;50.72;101451.56;5109151;27;19931;-42
2022/08/24 08:09:37;;;;;;;;;;;;;;;24.48;51.28;101435.72;5111571;27;20401;-42
2022/08/24 08:12:02;;;;;;;;;;;;;;;24.47;51.50;101445.19;5115033;27;19931;-45
2022/08/24 08:14:28;;;;;;;;;;;;;;;24.50;51.69;101452.94;5118670;27;19931;-42
2022/08/24 08:16:53;;;;;;;;;;;;;;;24.48;51.25;101458.00;5120883;27;19977;-42
2022/08/24 08:19:19;;;;;;;;;;;;;;;24.49;51.50;101459.66;5123233;27;19932;-41
2022/08/24 08:24:31;;;;;;;;;;;;;;;24.52;51.76;101460.97;5097593;27;19967;-43
2022/08/24 08:26:58;;;;;;;;;;;;;;;24.52;51.77;101460.97;5120469;27;19931;-43
2022/08/24 08:29:24;;;;;;;;;;;;;;;24.51;51.68;101465.72;5122732;27;19938;-41
2022/08/24 08:31:50;;;;;;;;;;;;;;;24.52;51.87;101464.63;5104359;27;20486;-43
2022/08/24 08:34:16;;;;;;;;;;;;;;;24.52;51.98;101464.63;5120577;27;20093;-42
2022/08/24 08:36:42;;;;;;;;;;;;;;;24.52;52.01;101472.13;5117782;27;20394;-40
2022/08/24 08:39:08;;;;;;;;;;;;;;;24.53;51.46;101469.03;5110397;27;19936;-39
2022/08/24 08:41:55;;;;;;;;;;;;;;;24.51;51.72;101467.69;5110817;27;20101;-42
2022/08/24 08:44:40;;;;;;;;;;;;;;;24.53;51.38;101466.25;5105744;27;20026;-44
2022/08/24 08:47:22;;;;;;;;;;;;;;;24.53;51.60;101459.88;5115363;27;20528;-44
2022/08/24 08:50:08;;;;;;;;;;;;;;;24.54;51.59;101475.44;5124037;27;20018;-45
2022/08/24 08:52:52;;;;;;;;;;;;;;;24.52;51.79;101470.19;5113293;27;20065;-50
2022/08/24 08:55:38;;;;;;;;;;;;;;;24.52;51.23;101472.97;5122513;27;20132;-42
2022/08/24 08:58:11;;;;;;;;;;;;;;;24.54;51.49;101467.09;5111739;27;19924;-42
2022/08/24 09:00:49;;;;;;;;;;;;;;;24.54;51.75;101461.50;5104038;27;19937;-41
2022/08/24 09:03:26;;;;;;;;;;;;;;;24.55;51.35;101460.38;5108423;27;19993;-41
2022/08/24 09:06:08;;;;;;;;;;;;;;;24.53;51.24;101463.47;5120772;27;20519;-41
2022/08/24 09:08:56;;;;;;;;;;;;;;;24.54;51.18;101461.50;5126720;27;20006;-43
2022/08/24 09:11:28;;;;;;;;;;;;;;;24.53;51.38;101457.91;5108774;27;20572;-43
2022/08/24 09:14:13;;;;;;;;;;;;;;;24.56;51.44;101458.41;5124749;27;19962;-45
2022/08/24 09:16:43;;;;;;;;;;;;;;;24.56;51.28;101450.88;5121667;27;20030;-43
2022/08/24 09:19:28;;;;;;;;;;;;;;;24.55;51.23;101453.97;5121911;27;21513;-41
2022/08/24 09:22:13;;;;;;;;;;;;;;;24.56;50.89;101448.09;5106745;27;19955;-43
2022/08/24 09:24:43;;;;;;;;;;;;;;;24.57;51.01;101449.78;5124549;27;19931;-45
2022/08/24 09:27:28;;;;;;;;;;;;;;;24.57;51.04;101451.69;5121326;27;20452;-42
2022/08/24 09:30:10;;;;;;;;;;;;;;;24.57;50.83;101454.50;5108685;27;20022;-41
2022/08/24 09:32:38;;;;;;;;;;;;;;;24.56;50.61;101447.28;5101882;27;20038;-45
2022/08/24 09:35:08;;;;;;;;;;;;;;;24.58;50.83;101445.03;5121623;27;20034;-45
2022/08/24 09:37:41;;;;;;;;;;;;;;;24.59;50.98;101439.16;5103167;28;20238;-45
2022/08/24 09:40:29;;;;;;;;;;;;;;;24.59;51.13;101443.88;5116067;27;19932;-43
2022/08/24 09:43:14;;;;;;;;;;;;;;;24.59;51.46;101436.34;5108555;27;19978;-44
2022/08/24 09:48:22;;;;;;;;;;;;;;;24.58;51.74;101440.28;5157946;27;20455;-42
2022/08/24 09:51:08;;;;;;;;;;;;;;;24.58;51.90;101426.34;5153549;27;19923;-42
2022/08/24 09:53:39;;;;;;;;;;;;;;;24.58;51.55;101431.09;5138796;27;20022;-44
2022/08/24 09:56:10;;;;;;;;;;;;;;;24.59;50.61;101430.78;5154035;27;20015;-42
2022/08/24 09:58:56;;;;;;;;;;;;;;;24.59;50.56;101430.78;5154508;27;20010;-42
2022/08/24 10:01:39;;;;;;;;;;;;;;;24.59;50.46;101429.97;5137222;27;20574;-42
2022/08/24 10:04:08;;;;;;;;;;;;;;;24.59;50.47;101430.78;5155140;27;20215;-47
2022/08/24 10:06:42;;;;;;;;;;;;;;;24.60;50.63;101428.81;5155446;27;20005;-41
2022/08/24 10:09:27;;;;;;;;;;;;;;;24.60;50.83;101423.25;5158870;27;20016;-42
2022/08/24 10:11:59;;;;;;;;;;;;;;;24.59;50.89;101430.78;5142730;27;20009;-41
2022/08/24 10:14:44;;;;;;;;;;;;;;;24.60;50.65;101424.09;5138469;27;20010;-42
2022/08/24 10:17:30;;;;;;;;;;;;;;;24.59;50.58;101418.81;5140720;27;20017;-44
2022/08/24 10:20:15;;;;;;;;;;;;;;;24.59;51.05;101418.81;5141846;27;20030;-43
2022/08/24 10:23:00;;;;;;;;;;;;;;;24.59;50.74;101416.03;5146077;27;19923;-45
2022/08/24 10:25:36;;;;;;;;;;;;;;;24.58;50.71;101418.00;5144513;27;20645;-43
2022/08/24 10:28:10;;;;;;;;;;;;;;;24.58;51.23;101409.66;5136235;27;19923;-47
2022/08/24 10:30:39;;;;;;;;;;;;;;;24.58;50.92;101417.19;5156688;27;20219;-44
2022/08/24 10:33:21;;;;;;;;;;;;;;;24.59;51.20;101410.47;5154710;27;20016;-47
2022/08/24 10:36:07;;;;;;;;;;;;;;;24.64;50.62;101405.63;5154663;27;20015;-44
2022/08/24 10:41:25;;;;;;;;;;;;;;;24.61;51.08;101399.84;5126651;27;21144;-45
2022/08/24 10:43:55;;;;;;;;;;;;;;;24.61;51.28;101402.63;5151804;27;20550;-46
2022/08/24 10:46:29;;;;;;;;;;;;;;;24.60;51.16;101390.66;5146610;27;20292;-45
2022/08/24 10:49:15;;;;;;;;;;;;;;;24.61;51.50;101391.50;5150369;27;20010;-43
2022/08/24 10:52:00;;;;;;;;;;;;;;;24.60;51.48;101398.19;5137471;27;20029;-42
2022/08/24 10:54:26;;;;;;;;;;;;;;;24.60;51.59;101393.44;5160026;27;20018;-42
2022/08/24 10:56:56;;;;;;;;;;;;;;;24.59;51.59;101397.38;5151986;27;19999;-41
2022/08/24 10:59:23;;;;;;;;;;;;;;;24.59;51.65;101394.59;5143275;27;19980;-41
2022/08/24 11:01:58;;;;;;;;;;;;;;;24.61;52.17;101386.78;5145951;27;20361;-51
2022/08/24 11:04:26;;;;;;;;;;;;;;;24.65;51.65;101389.75;5117828;27;19931;-47
2022/08/24 11:07:08;;;;;;;;;;;;;;;24.64;51.62;101391.69;5120329;27;20038;-42
2022/08/24 11:09:42;;;;;;;;;;;;;;;24.63;51.67;101386.44;5123685;27;20010;-43
2022/08/24 11:12:16;;;;;;;;;;;;;;;24.63;51.64;101386.44;5140788;27;19971;-41
2022/08/24 11:14:45;;;;;;;;;;;;;;;24.63;51.67;101386.44;5144155;27;20010;-46
2022/08/24 11:17:15;;;;;;;;;;;;;;;24.63;51.66;101384.50;5119627;27;20030;-44
2022/08/24 11:19:41;;;;;;;;;;;;;;;24.64;51.70;101388.91;5117047;27;20061;-43
2022/08/24 11:22:27;;;;;;;;;;;;;;;24.69;50.90;101383.25;5141248;27;19938;-41
2022/08/24 11:24:54;;;;;;;;;;;;;;;24.76;50.86;101377.28;5124150;27;20378;-45
2022/08/24 11:27:34;;;;;;;;;;;;;;;24.68;51.21;101381.59;5121253;27;20064;-41
2022/08/24 11:30:04;;;;;;;;;;;;;;;24.68;51.31;101370.47;5119148;27;20029;-41
2022/08/24 11:32:36;;;;;;;;;;;;;;;24.67;51.23;101370.78;5141430;27;20018;-42
2022/08/24 11:35:04;;;;;;;;;;;;;;;24.67;51.39;101370.78;5122732;27;20028;-41
2022/08/24 11:37:31;;;;;;;;;;;;;;;24.65;51.54;101365.50;5139302;27;20294;-42
2022/08/24 11:39:56;;;;;;;;;;;;;;;24.69;50.80;101368.50;5139253;27;20023;-41
2022/08/24 11:42:42;;;;;;;;;;;;;;;24.68;51.36;101359.31;5134256;27;19931;-42
2022/08/24 11:45:21;;;;;;;;;;;;;;;24.70;51.12;101359.84;5105483;27;20073;-42
2022/08/24 11:47:50;;;;;;;;;;;;;;;24.71;51.37;101360.69;5119246;28;20066;-43
2022/08/24 11:50:18;;;;;;;;;;;;;;;24.71;51.18;101350.34;5120916;28;20007;-41
2022/08/24 11:55:41;;;;;;;;;;;;;;;24.71;51.19;101355.09;5174011;27;20010;-41
2022/08/24 11:58:36;;;;;;;;;;;;;;;24.72;50.95;101365.09;5140716;27;20023;-40
2022/08/24 12:04:00;;;;;;;;;;;;;;;24.72;51.00;101357.56;5165188;27;20345;-39
2022/08/24 12:06:32;;;;;;;;;;;;;;;24.71;51.28;101347.56;5128859;27;19932;-40
2022/08/24 12:09:18;;;;;;;;;;;;;;;24.71;51.41;101355.09;5157330;27;19932;-39
2022/08/24 12:12:03;;;;;;;;;;;;;;;24.72;51.43;101349.22;5139725;27;20469;-39
2022/08/24 12:14:49;;;;;;;;;;;;;;;24.70;51.51;101339.53;5141529;27;20049;-39
2022/08/24 12:17:18;;;;;;;;;;;;;;;24.71;50.79;101339.22;5135428;27;20004;-40
2022/08/24 12:19:48;;;;;;;;;;;;;;;24.71;51.50;101336.44;5157681;27;20025;-39
2022/08/24 12:22:14;;;;;;;;;;;;;;;24.71;51.50;101332.81;5143653;27;19972;-39
2022/08/24 12:24:44;;;;;;;;;;;;;;;24.72;51.57;101334.47;5153833;27;19932;-38
2022/08/24 12:27:14;;;;;;;;;;;;;;;24.73;51.55;101333.34;5156801;27;20013;-40
2022/08/24 12:29:41;;;;;;;;;;;;;;;24.71;51.25;101336.44;5157229;27;20030;-39
2022/08/24 12:32:09;;;;;;;;;;;;;;;24.71;51.55;101339.22;5158553;27;20021;-38
2022/08/24 12:34:53;;;;;;;;;;;;;;;24.72;51.07;101332.50;5158700;27;20006;-40
2022/08/24 12:37:33;;;;;;;;;;;;;;;24.73;51.53;101331.38;5154101;27;19935;-39
2022/08/24 12:40:19;;;;;;;;;;;;;;;24.74;51.39;101326.63;5160316;27;19967;-39
2022/08/24 12:42:49;;;;;;;;;;;;;;;24.73;51.48;101334.16;5139639;27;19931;-38
2022/08/24 12:45:18;;;;;;;;;;;;;;;24.74;51.01;101326.63;5139745;27;20338;-39
2022/08/24 12:47:47;;;;;;;;;;;;;;;24.74;51.51;101323.84;5150206;27;19923;-39
2022/08/24 12:50:31;;;;;;;;;;;;;;;24.73;51.49;101330.53;5135158;27;20328;-39
2022/08/24 12:53:01;;;;;;;;;;;;;;;24.74;51.10;101321.91;5157148;27;20069;-41
2022/08/24 12:55:37;;;;;;;;;;;;;;;24.74;51.45;101324.69;5160393;27;20379;-40
2022/08/24 12:58:07;;;;;;;;;;;;;;;24.73;51.46;101325.78;5160487;27;20079;-41
2022/08/24 13:00:52;;;;;;;;;;;;;;;24.73;51.45;101334.16;5135697;27;20168;-39
2022/08/24 13:03:36;;;;;;;;;;;;;;;24.74;51.35;101318.25;5161214;27;19930;-40
2022/08/24 13:06:05;;;;;;;;;;;;;;;24.74;51.21;101321.03;5151961;27;20034;-39
2022/08/24 13:08:32;;;;;;;;;;;;;;;24.72;51.33;101321.38;5161099;27;19958;-39